Time;durP1;ratioP1;P1;durP2;ratioP2;P2;SDS_P1;SDS_P2;PMS_P1;PMS_P2;Temp;Humidity;BMP_temperature;BMP_pressure;BME280_temperature;BME280_humidity;BME280_pressure;Samples;Min_cycle;Max_cycle;Signal;HPM_P1;HPM_P2
2022/06/15 00:08:03;;;;;;;12.40;7.00;;;;;;;9.40;65.48;99129.97;433643;1267;108813;-42
2022/06/15 00:18:11;;;;;;;20.90;7.50;;;;;;;9.44;65.73;99130.96;433723;1267;99929;-41
2022/06/15 00:28:18;;;;;;;15.60;8.80;;;;;;;9.35;66.08;99131.82;433526;1268;112511;-40
2022/06/15 00:38:24;;;;;;;22.80;11.90;;;;;;;9.10;66.61;99133.45;433754;1268;108613;-41
2022/06/15 00:48:32;;;;;;;18.60;10.80;;;;;;;8.96;67.40;99133.92;433679;1268;98874;-42
2022/06/15 00:58:42;;;;;;;13.70;8.80;;;;;;;9.02;67.67;99132.34;433845;1267;108964;-44
2022/06/15 01:19:09;;;;;;;22.40;8.40;;;;;;;9.57;67.96;99128.23;433801;1268;111633;-41
2022/06/15 01:29:16;;;;;;;18.10;8.00;;;;;;;9.77;68.02;99132.31;434447;1258;107812;-41
2022/06/15 01:39:29;;;;;;;15.50;8.00;;;;;;;9.81;68.07;99135.77;433877;1267;99274;-42
2022/06/15 01:49:37;;;;;;;13.60;6.50;;;;;;;9.91;68.30;99132.55;433736;1268;108789;-41
2022/06/15 01:59:50;;;;;;;10.80;5.70;;;;;;;10.13;68.51;99124.85;433653;1267;98844;-41
2022/06/15 02:10:00;;;;;;;10.60;5.00;;;;;;;10.34;68.44;99124.91;433931;1268;111414;-43
2022/06/15 02:20:12;;;;;;;12.00;5.30;;;;;;;10.57;68.84;99128.38;433724;1267;108888;-43
2022/06/15 02:30:20;;;;;;;7.90;4.70;;;;;;;10.61;68.76;99125.48;433625;1267;101340;-41
2022/06/15 02:40:28;;;;;;;9.10;4.80;;;;;;;10.64;68.58;99127.76;433760;1268;108875;-42
2022/06/15 02:50:41;;;;;;;6.10;4.30;;;;;;;10.75;68.58;99129.95;433353;1268;98946;-42
2022/06/15 03:00:48;;;;;;;11.90;4.00;;;;;;;10.94;68.72;99131.52;433819;1266;113097;-42
2022/06/15 03:10:56;;;;;;;7.10;3.90;;;;;;;11.14;69.00;99130.95;433788;1268;107814;-42
2022/06/15 03:21:04;;;;;;;11.70;3.40;;;;;;;11.24;68.75;99133.23;433522;1267;98824;-43
2022/06/15 03:31:11;;;;;;;8.50;3.40;;;;;;;11.55;68.71;99137.30;433624;1268;108862;-42
2022/06/15 03:41:20;;;;;;;19.20;5.00;;;;;;;11.97;68.64;99135.23;433770;1267;98856;-41
2022/06/15 03:51:27;;;;;;;10.40;5.20;;;;;;;12.32;68.46;99144.80;433759;1267;112607;-42
2022/06/15 04:01:34;;;;;;;13.40;4.90;;;;;;;12.50;68.29;99141.48;433844;1268;107630;-44
2022/06/15 04:22:07;;;;;;;11.90;5.40;;;;;;;14.27;67.70;99136.33;433802;1267;108809;-43
2022/06/15 04:32:14;;;;;;;13.10;4.60;;;;;;;17.94;65.48;99124.10;433540;1268;99276;-43
2022/06/15 04:42:22;;;;;;;24.00;7.80;;;;;;;20.29;62.78;99124.67;433948;1268;112492;-45
2022/06/15 04:52:30;;;;;;;18.40;5.30;;;;;;;21.26;59.83;99125.18;433593;1268;108879;-41
2022/06/15 05:02:41;;;;;;;19.00;5.70;;;;;;;21.77;58.33;99128.88;433749;1268;99267;-41
2022/06/15 05:12:49;;;;;;;12.20;4.70;;;;;;;21.93;56.59;99130.21;433757;1268;108860;-42
2022/06/15 05:22:55;;;;;;;;;;;;;;;22.25;55.77;99132.70;433982;1267;99397;-40
2022/06/15 05:33:02;;;;;;;7.60;2.80;;;;;;;22.25;54.75;99142.61;433772;1265;113024;-41
2022/06/15 05:43:10;;;;;;;7.40;5.60;;;;;;;22.41;53.32;99154.38;434164;1268;108848;-42
2022/06/15 05:53:17;;;;;;;15.80;4.50;;;;;;;22.37;52.37;99157.08;433863;1267;99353;-41
2022/06/15 06:03:24;;;;;;;9.30;4.90;;;;;;;22.38;50.55;99155.19;433880;1268;108728;-41
2022/06/15 06:13:30;;;;;;;;;;;;;;;22.42;49.98;99153.45;433976;1268;99250;-41
2022/06/15 06:23:38;;;;;;;4.30;1.70;;;;;;;22.21;48.83;99155.68;433779;1268;113115;-41
2022/06/15 06:33:45;;;;;;;9.90;2.30;;;;;;;21.80;48.15;99153.43;434031;1268;109064;-43
2022/06/15 06:43:53;;;;;;;6.40;2.00;;;;;;;21.75;48.19;99155.88;433701;1267;99257;-42
2022/06/15 06:54:00;;;;;;;6.10;2.00;;;;;;;21.86;47.82;99151.75;433801;1267;108866;-41
2022/06/15 07:04:05;;;;;;;7.80;2.50;;;;;;;22.29;47.59;99157.75;433736;1268;98834;-42
2022/06/15 07:14:13;;;;;;;7.60;2.00;;;;;;;22.37;46.60;99154.45;433812;1268;112474;-42
2022/06/15 07:24:21;;;;;;;4.30;1.90;;;;;;;22.34;46.10;99154.81;433663;1268;108834;-42
2022/06/15 07:34:27;;;;;;;;;;;;;;;21.65;45.07;99151.14;433925;1267;98885;-41
2022/06/15 07:44:36;;;;;;;3.90;1.80;;;;;;;21.70;45.40;99154.80;433730;1268;112492;-44
2022/06/15 07:54:41;;;;;;;;;;;;;;;22.36;45.57;99157.09;433815;1267;109399;-43
2022/06/15 08:04:49;;;;;;;5.70;1.70;;;;;;;22.62;45.15;99146.85;433760;1268;99392;-40
2022/06/15 08:14:58;;;;;;;4.30;1.20;;;;;;;22.79;44.59;99143.55;433864;1268;107105;-43
2022/06/15 08:25:07;;;;;;;3.60;1.10;;;;;;;22.32;43.68;99150.58;433838;1268;99284;-44
2022/06/15 08:35:16;;;;;;;1.80;1.20;;;;;;;22.11;44.03;99156.03;433720;1268;112439;-42
2022/06/15 08:55:42;;;;;;;2.80;1.20;;;;;;;21.46;44.09;99158.40;433802;1267;99265;-42
2022/06/15 09:05:48;;;;;;;2.80;1.10;;;;;;;21.78;44.13;99163.14;433664;1268;108888;-40
2022/06/15 09:15:53;;;;;;;3.90;1.30;;;;;;;22.29;44.23;99152.02;434045;1268;98032;-42
2022/06/15 09:26:02;;;;;;;3.70;0.90;;;;;;;22.58;43.28;99153.67;433354;1268;694323;-40
2022/06/15 09:36:16;;;;;;;4.20;1.00;;;;;;;22.61;43.22;99148.33;433942;1268;109009;-41
2022/06/15 09:46:30;;;;;;;2.70;0.80;;;;;;;23.17;42.88;99146.31;433948;1267;99245;-42
2022/06/15 09:56:38;;;;;;;3.00;1.10;;;;;;;23.37;42.86;99146.45;433973;1268;107929;-45
2022/06/15 10:06:42;;;;;;;1.10;0.60;;;;;;;23.47;40.64;99153.16;433763;1267;98827;-40
2022/06/15 10:16:50;;;;;;;1.60;0.70;;;;;;;22.54;39.97;99150.60;434003;1268;112925;-41
2022/06/15 10:27:18;;;;;;;4.20;0.60;;;;;;;22.41;40.31;99144.42;433405;1269;108795;-40
2022/06/15 10:47:37;;;;;;;2.10;1.00;;;;;;;22.49;40.98;99121.59;433028;1270;108715;-43
2022/06/15 11:08:13;;;;;;;2.40;0.60;;;;;;;22.60;41.43;99095.84;432271;1270;112510;-43
2022/06/15 11:18:23;;;;;;;4.10;1.10;;;;;;;22.27;41.19;99105.94;433176;1269;108526;-42
2022/06/15 11:28:33;;;;;;;5.00;1.10;;;;;;;21.67;41.15;99105.60;433270;1270;99269;-42
2022/06/15 11:38:39;;;;;;;1.80;1.10;;;;;;;21.54;41.01;99101.09;433660;1268;107702;-43
2022/06/15 11:58:55;;;;;;;3.10;1.20;;;;;;;21.62;41.10;99091.34;433643;1267;112756;-41
2022/06/15 12:09:20;;;;;;;3.80;0.80;;;;;;;21.64;41.02;99092.39;433765;1267;108802;-40
2022/06/15 12:19:25;;;;;;;4.40;1.50;;;;;;;21.85;41.50;99086.55;433759;1268;99221;-40
2022/06/15 12:29:53;;;;;;;2.40;1.40;;;;;;;21.71;41.23;99088.14;433465;1267;108968;-42
2022/06/15 12:40:02;;;;;;;3.00;1.70;;;;;;;21.40;41.42;99083.14;433359;1269;99350;-43
2022/06/15 12:50:18;;;;;;;1.70;1.10;;;;;;;21.75;41.67;99078.80;433351;1270;112682;-42
2022/06/15 13:00:26;;;;;;;5.90;1.10;;;;;;;21.45;41.56;99069.84;433408;1269;109275;-45
2022/06/15 13:10:32;;;;;;;3.20;1.40;;;;;;;21.36;41.25;99060.02;433502;1268;99248;-40
2022/06/15 13:21:02;;;;;;;4.10;1.50;;;;;;;21.81;41.89;99059.48;433455;1269;109671;-41
2022/06/15 13:31:06;;;;;;;2.60;1.00;;;;;;;22.11;41.08;99042.38;433214;1270;99935;-41
2022/06/15 13:41:18;;;;;;;1.40;1.00;;;;;;;22.23;41.40;99042.02;433454;1269;112455;-40
2022/06/15 14:01:48;;;;;;;4.10;1.40;;;;;;;22.07;40.64;99035.38;433562;1269;98033;-44
2022/06/15 14:12:03;;;;;;;5.50;1.10;;;;;;;22.04;40.72;99028.81;433775;1269;108987;-42
2022/06/15 14:22:13;;;;;;;2.40;1.20;;;;;;;22.02;40.66;99020.12;433437;1269;99385;-40
2022/06/15 14:32:22;;;;;;;3.80;1.20;;;;;;;21.93;40.85;99017.55;433290;1268;112524;-41
2022/06/15 14:42:54;;;;;;;2.50;1.10;;;;;;;22.04;40.95;99011.20;433438;1269;108893;-40
2022/06/15 15:03:25;;;;;;;3.90;1.00;;;;;;;22.08;41.08;99005.49;433573;1270;112214;-40
2022/06/15 15:13:37;;;;;;;9.90;1.40;;;;;;;21.88;40.75;98993.25;433401;1269;107711;-41
2022/06/15 15:23:46;;;;;;;3.90;1.40;;;;;;;22.02;41.40;98987.27;433511;1269;99283;-42
2022/06/15 15:44:19;;;;;;;24.60;2.30;;;;;;;21.73;40.85;98975.13;433572;1269;99801;-42
2022/06/15 15:54:28;;;;;;;7.30;1.60;;;;;;;21.69;41.16;98967.39;433633;1267;112543;-43
2022/06/15 16:04:38;;;;;;;7.40;1.20;;;;;;;21.71;41.16;98965.59;433704;1267;108791;-42
2022/06/15 16:14:46;;;;;;;2.50;1.00;;;;;;;21.63;40.99;98964.27;433698;1267;99251;-40
2022/06/15 16:24:54;;;;;;;2.70;1.60;;;;;;;21.40;41.06;98955.75;433569;1267;108862;-41
2022/06/15 16:35:01;;;;;;;2.70;1.10;;;;;;;21.44;41.38;98948.25;433631;1267;98874;-41
2022/06/15 16:45:14;;;;;;;4.30;1.20;;;;;;;21.37;41.25;98948.11;433263;1267;113846;-43
2022/06/15 16:55:26;;;;;;;5.50;1.00;;;;;;;21.18;41.06;98947.23;433608;1267;109320;-43
2022/06/15 17:05:34;;;;;;;3.80;0.90;;;;;;;21.01;41.26;98942.51;433657;1267;99279;-41
2022/06/15 17:16:01;;;;;;;3.20;1.30;;;;;;;20.86;41.65;98936.65;433551;1267;108793;-44
2022/06/15 17:26:12;;;;;;;4.40;1.20;;;;;;;20.70;41.67;98924.44;433585;1267;99250;-43
2022/06/15 17:36:19;;;;;;;3.90;0.90;;;;;;;20.56;41.96;98917.62;433452;1269;112240;-43
2022/06/15 17:46:30;;;;;;;3.80;0.70;;;;;;;20.36;42.33;98921.83;433376;1271;108802;-44
2022/06/15 17:56:41;;;;;;;3.70;1.00;;;;;;;20.06;42.57;98923.33;433435;1269;99263;-41
2022/06/15 18:06:49;;;;;;;1.20;0.90;;;;;;;19.74;43.27;98918.52;433261;1269;106984;-43
2022/06/15 18:17:01;;;;;;;4.50;2.30;;;;;;;19.51;43.97;98913.34;433343;1269;98860;-44
2022/06/15 18:27:10;;;;;;;9.40;2.70;;;;;;;19.18;44.33;98918.41;433453;1269;112386;-41
2022/06/15 18:37:18;;;;;;;5.70;2.40;;;;;;;18.79;45.34;98929.56;433493;1267;109034;-46
2022/06/15 18:47:37;;;;;;;6.70;3.00;;;;;;;18.50;46.34;98936.25;433699;1267;99385;-44
2022/06/15 18:57:46;;;;;;;6.50;2.20;;;;;;;18.14;46.87;98933.26;433706;1267;108866;-42
2022/06/15 19:07:58;;;;;;;5.80;2.70;;;;;;;17.75;48.12;98937.05;433294;1270;99251;-41
2022/06/15 19:18:05;;;;;;;5.50;3.90;;;;;;;17.29;48.98;98947.60;433794;1267;112452;-44
2022/06/15 19:28:13;;;;;;;7.90;4.00;;;;;;;16.83;49.77;98954.70;433712;1267;109059;-43
2022/06/15 19:38:20;;;;;;;8.10;4.80;;;;;;;16.36;50.92;98963.28;433345;1270;99950;-42
2022/06/15 19:48:28;;;;;;;6.60;4.10;;;;;;;16.12;51.67;98964.16;433260;1270;108960;-42
2022/06/15 19:58:35;;;;;;;10.40;3.40;;;;;;;15.94;52.44;98961.64;433086;1270;99247;-42
2022/06/15 20:08:43;;;;;;;5.50;3.50;;;;;;;15.84;52.96;98965.56;433140;1270;112185;-42
2022/06/15 20:18:50;;;;;;;5.20;3.30;;;;;;;15.72;53.66;98958.33;433471;1269;108781;-45
2022/06/15 20:28:58;;;;;;;6.30;3.50;;;;;;;15.62;54.18;98963.31;433389;1268;99256;-42
2022/06/15 20:39:04;;;;;;;6.80;4.60;;;;;;;15.53;54.51;98958.03;433056;1269;107548;-44
2022/06/15 20:49:13;;;;;;;9.80;4.70;;;;;;;15.39;54.85;98956.27;433215;1270;99244;-43
2022/06/15 20:59:22;;;;;;;12.30;5.30;;;;;;;15.38;54.94;98949.97;433398;1270;111248;-42
2022/06/15 21:19:36;;;;;;;8.90;6.20;;;;;;;15.30;55.28;98947.91;433212;1268;98923;-41
2022/06/15 21:29:44;;;;;;;11.30;7.70;;;;;;;15.16;55.48;98945.27;433000;1269;480975;-41
2022/06/15 21:39:50;;;;;;;14.30;8.00;;;;;;;14.99;55.81;98949.80;433113;1269;99250;-42
2022/06/15 21:49:58;;;;;;;13.60;7.10;;;;;;;14.98;55.88;98950.80;433235;1269;111284;-41
2022/06/15 22:00:07;;;;;;;10.50;6.40;;;;;;;14.94;56.27;98947.56;432975;1270;108607;-42
2022/06/15 22:10:16;;;;;;;13.80;6.80;;;;;;;14.97;56.41;98939.55;433429;1269;99346;-41
2022/06/15 22:20:25;;;;;;;9.50;7.70;;;;;;;14.97;56.57;98935.41;433150;1270;108905;-41
2022/06/15 22:30:40;;;;;;;10.90;7.10;;;;;;;14.68;56.76;98936.40;433282;1270;99134;-41
2022/06/15 22:40:48;;;;;;;9.00;6.90;;;;;;;14.33;57.36;98930.09;433017;1270;112398;-42
2022/06/15 22:50:55;;;;;;;8.00;6.30;;;;;;;14.13;57.69;98926.99;433006;1269;108971;-43
2022/06/15 23:01:03;;;;;;;7.80;5.60;;;;;;;14.04;58.18;98922.14;433077;1270;98847;-40
2022/06/15 23:11:11;;;;;;;11.40;6.90;;;;;;;13.94;58.71;98921.62;433403;1270;107708;-41
2022/06/15 23:21:21;;;;;;;14.00;6.70;;;;;;;13.79;59.22;98922.95;433177;1269;99261;-42
2022/06/15 23:31:28;;;;;;;8.60;7.80;;;;;;;13.54;59.54;98918.73;433384;1270;113007;-42
2022/06/15 23:52:02;;;;;;;8.10;5.90;;;;;;;13.42;60.03;98907.59;433052;1270;98323;-43
